Time;durP1;ratioP1;P1;durP2;ratioP2;P2;SDS_P1;SDS_P2;PMS_P1;PMS_P2;Temp;Humidity;BMP_temperature;BMP_pressure;BME280_temperature;BME280_humidity;BME280_pressure;Samples;Min_cycle;Max_cycle;Signal;HPM_P1;HPM_P2
2022/11/04 00:02:15;;;;;;;7.00;4.30;;;;;;;-145.48;100.00;64539.38;6036741;29;20057;-91
2022/11/04 00:05:17;;;;;;;5.75;4.15;;;;;;;-145.48;100.00;64539.38;6041075;29;20046;-91
2022/11/04 00:08:25;;;;;;;5.78;4.05;;;;;;;-145.48;100.00;64539.38;6042476;29;20048;-91
2022/11/04 00:14:48;;;;;;;;;;;;;;;-145.48;100.00;64539.38;6060107;29;20056;-92
2022/11/04 00:17:50;;;;;;;6.38;3.90;;;;;;;-145.48;100.00;64539.38;6057742;29;20409;-92
2022/11/04 00:28:41;;;;;;;7.70;4.18;;;;;;;-145.48;100.00;64539.38;6048165;29;20068;-92
2022/11/04 00:34:31;;;;;;;5.18;4.10;;;;;;;-145.48;100.00;64539.38;6054737;29;20088;-91
2022/11/04 00:37:38;;;;;;;7.90;4.60;;;;;;;-145.48;100.00;64539.38;6060809;29;20065;-91
2022/11/04 00:40:40;;;;;;;9.63;4.93;;;;;;;-145.48;100.00;64539.38;6052124;29;20087;-91
2022/11/04 00:43:42;;;;;;;7.03;4.30;;;;;;;-145.48;100.00;64539.38;6060187;29;20045;-91
2022/11/04 00:46:44;;;;;;;8.75;4.70;;;;;;;-145.48;100.00;64539.38;6056581;29;20401;-91
2022/11/04 00:49:46;;;;;;;5.78;4.32;;;;;;;-145.48;100.00;64539.38;6038204;29;20057;-91
2022/11/04 00:52:48;;;;;;;7.70;4.65;;;;;;;-145.48;100.00;64539.38;6046707;29;20368;-91
2022/11/04 00:55:50;;;;;;;6.45;4.20;;;;;;;-145.48;100.00;64539.38;6063981;29;20060;-90
2022/11/04 00:58:52;;;;;;;7.85;3.92;;;;;;;-145.48;100.00;64539.38;6051718;29;20045;-89
2022/11/04 01:01:54;;;;;;;5.55;3.80;;;;;;;-145.48;100.00;64539.38;6050188;29;20099;-89
2022/11/04 01:04:56;;;;;;;9.82;4.10;;;;;;;-145.48;100.00;64539.38;6049163;29;20287;-90
2022/11/04 01:07:58;;;;;;;6.65;3.67;;;;;;;-145.48;100.00;64539.38;6051428;29;20465;-90
2022/11/04 01:11:05;;;;;;;6.40;3.60;;;;;;;-145.48;100.00;64539.38;6042200;29;20198;-90
2022/11/04 01:14:07;;;;;;;5.25;4.10;;;;;;;-145.48;100.00;64539.38;6056979;29;20061;-91
2022/11/04 01:17:09;;;;;;;5.07;3.75;;;;;;;-145.48;100.00;64539.38;6046224;29;20076;-90
2022/11/04 01:20:12;;;;;;;5.68;3.55;;;;;;;-145.48;100.00;64539.38;6037592;29;20518;-91
2022/11/04 01:23:15;;;;;;;7.47;3.60;;;;;;;-145.48;100.00;64539.38;6052974;29;20052;-91
2022/11/04 01:26:20;;;;;;;5.75;3.42;;;;;;;-145.48;100.00;64539.38;6064760;29;20502;-91
2022/11/04 01:29:22;;;;;;;4.97;3.15;;;;;;;-145.48;100.00;64539.38;6042589;29;20511;-91
2022/11/04 01:32:24;;;;;;;4.13;3.13;;;;;;;-145.48;100.00;64539.38;6038845;29;20055;-91
2022/11/04 01:35:26;;;;;;;5.03;3.05;;;;;;;-145.48;100.00;64539.38;6040079;29;20920;-91
2022/11/04 01:38:28;;;;;;;4.38;3.05;;;;;;;-145.48;100.00;64539.38;6049020;29;20048;-91
2022/11/04 01:41:32;;;;;;;4.15;2.92;;;;;;;-145.48;100.00;64539.38;6042153;29;20052;-91
2022/11/04 01:44:40;;;;;;;5.45;3.20;;;;;;;-145.48;100.00;64539.38;6017890;29;20503;-91
2022/11/04 01:47:55;;;;;;;4.53;2.75;;;;;;;-145.48;100.00;64539.38;6047449;29;20128;-92
2022/11/04 01:50:58;;;;;;;4.85;2.78;;;;;;;-145.48;100.00;64539.38;6046436;29;20452;-92
2022/11/04 01:54:02;;;;;;;5.20;3.35;;;;;;;-145.48;100.00;64539.38;6030039;29;20156;-92
2022/11/04 01:57:09;;;;;;;4.97;3.13;;;;;;;-145.48;100.00;64539.38;6045660;29;20463;-91
2022/11/04 02:00:16;;;;;;;5.97;2.80;;;;;;;-145.48;100.00;64539.38;6044857;29;20071;-92
2022/11/04 02:03:22;;;;;;;5.82;3.53;;;;;;;-145.48;100.00;64539.38;6033099;29;20057;-93
2022/11/04 02:06:24;;;;;;;6.70;3.63;;;;;;;-145.48;100.00;64539.38;6037506;29;20060;-91
2022/11/04 02:09:29;;;;;;;5.78;3.88;;;;;;;-145.48;100.00;64539.38;6062103;29;20056;-91
2022/11/04 02:16:10;;;;;;;6.60;3.72;;;;;;;-145.48;100.00;64539.38;6032396;29;20053;-91
2022/11/04 02:19:43;;;;;;;6.03;3.85;;;;;;;-145.48;100.00;64539.38;6043517;29;20053;-91
2022/11/04 02:23:11;;;;;;;7.57;3.60;;;;;;;-145.48;100.00;64539.38;6033543;29;20592;-91
2022/11/04 02:26:58;;;;;;;4.25;3.00;;;;;;;-145.48;100.00;64539.38;6041425;29;20507;-91
2022/11/04 02:30:20;;;;;;;6.18;3.78;;;;;;;-145.48;100.00;64539.38;6020020;29;20060;-91
2022/11/04 02:33:49;;;;;;;4.20;3.13;;;;;;;-145.48;100.00;64539.38;6017861;29;20065;-91
2022/11/04 02:37:11;;;;;;;5.78;3.42;;;;;;;-145.48;100.00;64539.38;6003532;29;20050;-91
2022/11/04 02:40:44;;;;;;;4.75;2.97;;;;;;;-145.48;100.00;64539.38;6019981;29;20069;-91
2022/11/04 02:43:55;;;;;;;3.33;2.65;;;;;;;-145.48;100.00;64539.38;6023289;29;20085;-91
2022/11/04 02:47:12;;;;;;;4.10;2.72;;;;;;;-145.48;100.00;64539.38;6032333;29;20596;-91
2022/11/04 02:50:32;;;;;;;4.60;2.50;;;;;;;-145.48;100.00;64539.38;6021156;29;20061;-91
2022/11/04 02:53:59;;;;;;;3.75;2.50;;;;;;;-145.48;100.00;64539.38;6014654;29;20068;-90
2022/11/04 02:57:04;;;;;;;3.85;2.20;;;;;;;-145.48;100.00;64539.38;6021669;29;20079;-91
2022/11/04 03:00:12;;;;;;;3.00;1.92;;;;;;;-145.48;100.00;64539.38;6032093;29;20436;-90
2022/11/04 03:03:22;;;;;;;1.90;1.70;;;;;;;-145.48;100.00;64539.38;6030914;29;20053;-90
2022/11/04 03:06:27;;;;;;;1.52;1.40;;;;;;;-145.48;100.00;64539.38;6031694;29;20057;-91
2022/11/04 03:09:32;;;;;;;2.97;1.50;;;;;;;-145.48;100.00;64539.38;6046543;29;20410;-90
2022/11/04 03:12:43;;;;;;;1.40;1.10;;;;;;;-145.48;100.00;64539.38;6035634;29;20733;-90
2022/11/04 03:15:50;;;;;;;1.30;0.90;;;;;;;-145.48;100.00;64539.38;6044980;29;20581;-90
2022/11/04 03:19:11;;;;;;;2.85;1.00;;;;;;;-145.48;100.00;64539.38;6048394;29;20565;-90
2022/11/04 03:22:22;;;;;;;2.03;0.93;;;;;;;-145.48;100.00;64539.38;6044379;29;20057;-89
2022/11/04 03:25:31;;;;;;;0.98;0.85;;;;;;;-145.48;100.00;64539.38;6048174;29;20140;-91
2022/11/04 03:28:42;;;;;;;1.00;0.90;;;;;;;-145.48;100.00;64539.38;6053960;29;20549;-90
2022/11/04 03:32:01;;;;;;;3.20;1.23;;;;;;;-145.48;100.00;64539.38;6049582;29;20521;-90
2022/11/04 03:35:04;;;;;;;2.28;0.90;;;;;;;-145.48;100.00;64539.38;6047862;29;20059;-90
2022/11/04 03:38:06;;;;;;;1.30;1.20;;;;;;;-145.48;100.00;64539.38;6057244;29;20056;-90
2022/11/04 03:41:22;;;;;;;4.68;1.77;;;;;;;-145.48;100.00;64539.38;6048202;29;20506;-91
2022/11/04 03:44:24;;;;;;;1.10;1.00;;;;;;;-145.48;100.00;64539.38;6035303;29;20120;-90
2022/11/04 03:47:28;;;;;;;1.83;1.50;;;;;;;-145.48;100.00;64539.38;6044130;29;20041;-90
2022/11/04 03:50:39;;;;;;;3.30;1.90;;;;;;;-145.48;100.00;64539.38;6044365;29;20052;-90
2022/11/04 03:53:41;;;;;;;3.28;2.15;;;;;;;-145.48;100.00;64539.38;6046048;29;20053;-90
2022/11/04 03:57:00;;;;;;;3.08;1.90;;;;;;;-145.48;100.00;64539.38;6043051;29;20053;-91
2022/11/04 04:00:06;;;;;;;3.10;2.05;;;;;;;-145.48;100.00;64539.38;6044251;29;20335;-91
2022/11/04 04:03:17;;;;;;;3.40;2.67;;;;;;;-145.48;100.00;64539.38;6041763;29;20049;-91
2022/11/04 04:06:23;;;;;;;;;;;;;;;-145.48;100.00;64539.38;6057169;29;20052;-90
2022/11/04 04:09:38;;;;;;;5.00;3.75;;;;;;;-145.48;100.00;64539.38;6052620;29;19928;-90
2022/11/04 04:12:40;;;;;;;4.53;3.80;;;;;;;-145.48;100.00;64539.38;6038477;29;20517;-90
2022/11/04 04:15:57;;;;;;;5.28;4.20;;;;;;;-145.48;100.00;64539.38;6049311;29;20045;-91
2022/11/04 04:19:11;;;;;;;4.82;3.58;;;;;;;-145.48;100.00;64539.38;6045655;29;20049;-91
2022/11/04 04:22:19;;;;;;;6.05;4.22;;;;;;;-145.48;100.00;64539.38;6031228;29;20500;-90
2022/11/04 04:28:48;;;;;;;4.93;4.40;;;;;;;-145.48;100.00;64539.38;6058249;29;20518;-90
2022/11/04 04:31:56;;;;;;;4.72;4.20;;;;;;;-145.48;100.00;64539.38;6053871;29;20399;-90
2022/11/04 04:45:07;;;;;;;6.75;5.18;;;;;;;-145.48;100.00;64539.38;6050810;29;20162;-91
2022/11/04 04:48:12;;;;;;;5.32;4.72;;;;;;;-145.48;100.00;64539.38;6040477;29;20190;-90
2022/11/04 04:51:15;;;;;;;5.28;4.78;;;;;;;-145.48;100.00;64539.38;6054506;29;20045;-90
2022/11/04 04:54:16;;;;;;;6.65;4.57;;;;;;;-145.48;100.00;64539.38;6059616;29;20202;-91
2022/11/04 04:57:18;;;;;;;8.75;4.95;;;;;;;-145.48;100.00;64539.38;6055888;29;20391;-90
2022/11/04 05:00:20;;;;;;;5.85;5.18;;;;;;;-145.48;100.00;64539.38;6053531;29;20052;-91
2022/11/04 05:03:23;;;;;;;5.45;4.95;;;;;;;-145.48;100.00;64539.38;6042969;29;20515;-91
2022/11/04 05:06:26;;;;;;;5.15;4.65;;;;;;;-145.48;100.00;64539.38;6050268;29;20451;-90
2022/11/04 05:09:28;;;;;;;6.30;5.05;;;;;;;-145.48;100.00;64539.38;6048475;29;20045;-90
2022/11/04 05:13:24;;;;;;;5.63;4.70;;;;;;;-145.48;100.00;64539.38;6051859;29;20059;-91
2022/11/04 05:15:52;;;;;;;6.85;4.97;;;;;;;-145.48;100.00;64539.38;6060218;29;20433;-91
2022/11/04 05:18:54;;;;;;;5.93;4.72;;;;;;;-145.48;100.00;64539.38;6068093;29;20048;-91
2022/11/04 05:21:56;;;;;;;5.72;4.90;;;;;;;-145.48;100.00;64539.38;6056340;29;20044;-91
2022/11/04 05:24:58;;;;;;;6.43;5.13;;;;;;;-145.48;100.00;64539.38;6047645;29;20476;-91
2022/11/04 05:28:00;;;;;;;5.10;4.60;;;;;;;-145.48;100.00;64539.38;6026528;29;20111;-91
2022/11/04 05:31:05;;;;;;;7.22;5.00;;;;;;;-145.48;100.00;64539.38;6053207;29;20045;-91
2022/11/04 05:34:09;;;;;;;5.57;4.95;;;;;;;-145.48;100.00;64539.38;6046178;29;20144;-90
2022/11/04 05:37:11;;;;;;;6.32;5.15;;;;;;;-145.48;100.00;64539.38;6057355;29;20087;-91
2022/11/04 05:40:13;;;;;;;5.35;4.82;;;;;;;-145.48;100.00;64539.38;6045596;29;20048;-91
2022/11/04 05:43:15;;;;;;;10.02;5.80;;;;;;;-145.48;100.00;64539.38;6043402;29;20438;-91
2022/11/04 05:46:17;;;;;;;6.32;5.15;;;;;;;-145.48;100.00;64539.38;6057907;29;20523;-91
2022/11/04 05:49:19;;;;;;;6.53;5.53;;;;;;;-145.48;100.00;64539.38;6052332;29;20045;-91
2022/11/04 05:52:20;;;;;;;8.57;5.20;;;;;;;-145.48;100.00;64539.38;6044801;29;20049;-90
2022/11/04 05:55:22;;;;;;;5.55;4.95;;;;;;;-145.48;100.00;64539.38;6050141;29;20136;-91
2022/11/04 05:58:24;;;;;;;7.43;5.35;;;;;;;-145.48;100.00;64539.38;6054828;29;20228;-91
2022/11/04 06:01:35;;;;;;;5.82;5.22;;;;;;;-145.48;100.00;64539.38;6053833;29;20494;-91
2022/11/04 06:04:37;;;;;;;;;;;;;;;-145.48;100.00;64539.38;6046719;29;20495;-92
2022/11/04 06:07:39;;;;;;;7.32;4.72;;;;;;;-145.48;100.00;64539.38;6051149;29;20056;-91
2022/11/04 06:10:42;;;;;;;6.57;4.65;;;;;;;-145.48;100.00;64539.38;6062128;29;20511;-91
2022/11/04 06:13:44;;;;;;;6.68;4.57;;;;;;;-145.48;100.00;64539.38;6043163;29;20049;-91
2022/11/04 06:16:46;;;;;;;7.53;5.38;;;;;;;-145.48;100.00;64539.38;6057902;29;20060;-92
2022/11/04 06:19:48;;;;;;;6.93;5.07;;;;;;;-145.48;100.00;64539.38;6048445;29;20036;-92
2022/11/04 06:22:50;;;;;;;7.13;5.50;;;;;;;-145.48;100.00;64539.38;6052154;29;20082;-92
2022/11/04 06:25:52;;;;;;;7.13;5.85;;;;;;;-145.48;100.00;64539.38;6047508;29;20049;-92
2022/11/04 06:28:54;;;;;;;5.68;4.85;;;;;;;-145.48;100.00;64539.38;6062428;29;20096;-91
2022/11/04 06:31:55;;;;;;;5.93;4.97;;;;;;;-145.48;100.00;64539.38;6057697;29;20065;-92
2022/11/04 06:34:57;;;;;;;5.93;5.00;;;;;;;-145.48;100.00;64539.38;6059691;29;20504;-91
2022/11/04 06:37:59;;;;;;;7.13;5.05;;;;;;;-145.48;100.00;64539.38;6050237;29;20048;-91
2022/11/04 06:41:02;;;;;;;5.15;4.60;;;;;;;-145.48;100.00;64539.38;6056103;29;20082;-92
2022/11/04 06:44:07;;;;;;;6.50;4.65;;;;;;;-145.48;100.00;64539.38;6037325;29;20044;-92
2022/11/04 06:47:09;;;;;;;5.65;4.65;;;;;;;-145.48;100.00;64539.38;6033086;29;20489;-92
2022/11/04 06:50:11;;;;;;;6.18;5.20;;;;;;;-145.48;100.00;64539.38;6037996;29;20500;-92
2022/11/04 06:53:13;;;;;;;6.93;5.10;;;;;;;-145.48;100.00;64539.38;6048225;29;20057;-92
2022/11/04 06:56:15;;;;;;;9.40;5.07;;;;;;;-145.48;100.00;64539.38;6044773;29;20524;-92
2022/11/04 06:59:19;;;;;;;5.70;5.10;;;;;;;-145.48;100.00;64539.38;6046561;29;20040;-92
2022/11/04 07:02:21;;;;;;;5.72;5.10;;;;;;;-145.48;100.00;64539.38;6050066;29;20048;-92
2022/11/04 07:05:23;;;;;;;7.00;4.82;;;;;;;-145.48;100.00;64539.38;6053181;29;20041;-92
2022/11/04 07:08:26;;;;;;;6.20;4.75;;;;;;;-145.48;100.00;64539.38;6058738;29;20168;-92
2022/11/04 07:11:30;;;;;;;5.75;5.15;;;;;;;-145.48;100.00;64539.38;6058359;29;20056;-91
2022/11/04 07:14:32;;;;;;;7.65;5.13;;;;;;;-145.48;100.00;64539.38;6059843;29;20056;-92
2022/11/04 07:17:35;;;;;;;10.70;5.13;;;;;;;-145.48;100.00;64539.38;6058589;29;20036;-92
2022/11/04 07:20:38;;;;;;;5.80;4.55;;;;;;;-145.48;100.00;64539.38;6064407;29;20080;-91
2022/11/04 07:23:41;;;;;;;7.47;4.93;;;;;;;-145.48;100.00;64539.38;6046922;29;20041;-92
2022/11/04 07:26:43;;;;;;;7.57;4.82;;;;;;;-145.48;100.00;64539.38;6043788;29;20037;-92
2022/11/04 07:29:45;;;;;;;5.07;4.07;;;;;;;-145.48;100.00;64539.38;6060602;29;20053;-91
2022/11/04 07:32:47;;;;;;;5.30;4.43;;;;;;;-145.48;100.00;64539.38;6049524;29;20339;-92
2022/11/04 07:35:49;;;;;;;7.95;4.05;;;;;;;-145.48;100.00;64539.38;6056504;29;20083;-91
2022/11/04 07:38:55;;;;;;;6.20;4.07;;;;;;;-145.48;100.00;64539.38;6055436;29;20040;-91
2022/11/04 07:41:57;;;;;;;7.63;4.63;;;;;;;-145.48;100.00;64539.38;6059539;29;20048;-92
2022/11/04 07:45:00;;;;;;;5.43;4.72;;;;;;;-145.48;100.00;64539.38;6057366;29;20045;-91
2022/11/04 07:48:02;;;;;;;6.43;4.82;;;;;;;-145.48;100.00;64539.38;6049648;29;20056;-92
2022/11/04 07:51:06;;;;;;;6.03;4.40;;;;;;;-145.48;100.00;64539.38;6067445;29;20056;-91
2022/11/04 07:54:08;;;;;;;7.05;5.00;;;;;;;-145.48;100.00;64539.38;6065052;29;20041;-92
2022/11/04 07:57:10;;;;;;;7.70;4.97;;;;;;;-145.48;100.00;64539.38;6041803;29;20053;-92
2022/11/04 08:00:14;;;;;;;6.43;4.82;;;;;;;-145.48;100.00;64539.38;6047599;29;20567;-91
2022/11/04 08:03:16;;;;;;;6.40;4.32;;;;;;;-145.48;100.00;64539.38;6058936;29;20044;-91
2022/11/04 08:06:19;;;;;;;5.50;4.38;;;;;;;-145.48;100.00;64539.38;6047002;29;20077;-91
2022/11/04 08:09:22;;;;;;;5.70;4.80;;;;;;;-145.48;100.00;64539.38;6055363;29;20535;-92
2022/11/04 08:12:24;;;;;;;6.75;3.92;;;;;;;-145.48;100.00;64539.38;6051083;29;20045;-91
2022/11/04 08:15:27;;;;;;;9.82;5.50;;;;;;;-145.48;100.00;64539.38;6055388;29;20045;-91
2022/11/04 08:18:31;;;;;;;8.57;5.05;;;;;;;-145.48;100.00;64539.38;6053762;29;20791;-91
2022/11/04 08:21:33;;;;;;;6.82;5.35;;;;;;;-145.48;100.00;64539.38;6048177;29;20510;-91
2022/11/04 08:24:35;;;;;;;7.97;4.80;;;;;;;-145.48;100.00;64539.38;6048202;29;20544;-91
2022/11/04 08:27:37;;;;;;;4.90;4.40;;;;;;;-145.48;100.00;64539.38;6048325;29;20052;-92
2022/11/04 08:30:39;;;;;;;8.95;4.57;;;;;;;-145.48;100.00;64539.38;6042358;29;20049;-91
2022/11/04 08:33:42;;;;;;;5.18;4.47;;;;;;;-145.48;100.00;64539.38;6040724;29;20503;-92
2022/11/04 08:36:44;;;;;;;4.53;4.13;;;;;;;-145.48;100.00;64539.38;6032692;29;20055;-92
2022/11/04 08:39:46;;;;;;;6.15;4.60;;;;;;;-145.48;100.00;64539.38;6038636;29;20499;-92
2022/11/04 08:42:48;;;;;;;8.85;4.70;;;;;;;-145.48;100.00;64539.38;6056692;29;20346;-92
2022/11/04 08:45:51;;;;;;;6.15;4.72;;;;;;;-145.48;100.00;64539.38;6049744;29;20049;-92
2022/11/04 08:48:54;;;;;;;5.32;4.63;;;;;;;-145.48;100.00;64539.38;6059672;29;20616;-92
2022/11/04 08:51:58;;;;;;;5.22;4.35;;;;;;;-145.48;100.00;64539.38;6050775;29;20079;-92
2022/11/04 08:55:00;;;;;;;5.80;4.03;;;;;;;-145.48;100.00;64539.38;6050549;29;20064;-92
2022/11/04 08:58:03;;;;;;;5.43;4.63;;;;;;;-145.48;100.00;64539.38;6057099;29;20060;-92
2022/11/04 09:01:05;;;;;;;7.30;4.43;;;;;;;-145.48;100.00;64539.38;6067291;29;20120;-92
2022/11/04 09:04:10;;;;;;;5.07;4.57;;;;;;;-145.48;100.00;64539.38;6048652;29;20053;-92
2022/11/04 09:07:12;;;;;;;8.05;4.20;;;;;;;-145.48;100.00;64539.38;6051755;29;20688;-91
2022/11/04 09:10:14;;;;;;;7.15;4.47;;;;;;;-145.48;100.00;64539.38;6058919;29;20048;-91
2022/11/04 09:13:16;;;;;;;5.07;3.92;;;;;;;-145.48;100.00;64539.38;6054981;29;20052;-92
2022/11/04 09:16:18;;;;;;;6.55;4.50;;;;;;;-145.48;100.00;64539.38;6040125;29;20063;-92
2022/11/04 09:19:20;;;;;;;4.32;3.88;;;;;;;-145.48;100.00;64539.38;6040903;29;20045;-92
2022/11/04 09:22:22;;;;;;;4.55;4.00;;;;;;;-145.48;100.00;64539.38;6045373;29;20090;-91
2022/11/04 09:25:24;;;;;;;5.70;3.78;;;;;;;-145.48;100.00;64539.38;6055956;29;20040;-91
2022/11/04 09:28:26;;;;;;;5.60;4.13;;;;;;;-145.48;100.00;64539.38;6035727;29;20064;-91
2022/11/04 09:31:29;;;;;;;5.53;3.92;;;;;;;-145.48;100.00;64539.38;6055529;29;20426;-91
2022/11/04 09:34:31;;;;;;;5.47;3.78;;;;;;;-145.48;100.00;64539.38;6059833;29;20056;-91
2022/11/04 09:37:34;;;;;;;4.65;3.78;;;;;;;-145.48;100.00;64539.38;6061629;29;20072;-91
2022/11/04 09:40:37;;;;;;;7.28;4.13;;;;;;;-145.48;100.00;64539.38;6052581;29;20037;-91
2022/11/04 09:43:48;;;;;;;5.20;3.42;;;;;;;-145.48;100.00;64539.38;6043848;29;20490;-91
2022/11/04 09:46:52;;;;;;;6.18;3.63;;;;;;;-145.48;100.00;64539.38;6053144;29;20044;-91
2022/11/04 09:49:57;;;;;;;5.40;3.80;;;;;;;-145.48;100.00;64539.38;6050519;29;20067;-91
2022/11/04 09:53:35;;;;;;;5.35;3.72;;;;;;;-145.48;100.00;64539.38;6063990;29;20389;-91
2022/11/04 09:56:43;;;;;;;6.25;4.00;;;;;;;-145.48;100.00;64539.38;6033462;29;20053;-92
2022/11/04 09:59:46;;;;;;;4.57;4.13;;;;;;;-145.48;100.00;64539.38;6039070;29;20143;-91
2022/11/04 10:03:14;;;;;;;8.27;4.60;;;;;;;-145.48;100.00;64539.38;6037632;29;20519;-90
2022/11/04 10:06:44;;;;;;;6.03;4.28;;;;;;;-145.48;100.00;64539.38;6033079;29;20101;-91
2022/11/04 10:10:02;;;;;;;11.23;4.40;;;;;;;-145.48;100.00;64539.38;6030178;29;20129;-91
2022/11/04 10:13:22;;;;;;;6.53;4.57;;;;;;;-145.48;100.00;64539.38;6028055;29;20629;-92
2022/11/04 10:17:01;;;;;;;7.00;4.35;;;;;;;-145.48;100.00;64539.38;6023344;29;20061;-91
2022/11/04 10:20:18;;;;;;;3.85;3.40;;;;;;;-145.48;100.00;64539.38;6026794;29;20144;-91
2022/11/04 10:23:55;;;;;;;5.13;3.17;;;;;;;-145.48;100.00;64539.38;6028652;29;20053;-91
2022/11/04 10:27:02;;;;;;;3.70;3.40;;;;;;;-145.48;100.00;64539.38;5993353;29;20508;-91
2022/11/04 10:30:21;;;;;;;3.70;3.25;;;;;;;-145.48;100.00;64539.38;6002795;29;20053;-92
2022/11/04 10:33:40;;;;;;;5.63;3.30;;;;;;;-145.48;100.00;64539.38;5988653;29;20063;-91
2022/11/04 10:36:46;;;;;;;4.70;3.22;;;;;;;-145.48;100.00;64539.38;5991239;29;20058;-92
2022/11/04 10:39:48;;;;;;;4.72;3.33;;;;;;;-145.48;100.00;64539.38;5993555;29;20097;-91
2022/11/04 10:42:50;;;;;;;4.43;3.55;;;;;;;-145.48;100.00;64539.38;5970855;29;20046;-92
2022/11/04 10:46:00;;;;;;;6.78;3.88;;;;;;;-145.48;100.00;64539.38;5996081;29;20061;-93
2022/11/04 10:49:39;;;;;;;10.20;3.80;;;;;;;-145.48;100.00;64539.38;5990188;29;20073;-92
2022/11/04 10:53:23;;;;;;;5.25;3.65;;;;;;;-145.48;100.00;64539.38;5992148;29;20303;-91
2022/11/04 10:56:38;;;;;;;5.75;3.83;;;;;;;-145.48;100.00;64539.38;5991572;29;20057;-91
2022/11/04 10:59:53;;;;;;;4.75;3.28;;;;;;;-145.48;100.00;64539.38;6007745;29;20072;-92
2022/11/04 11:02:55;;;;;;;5.53;2.90;;;;;;;-145.48;100.00;64539.38;6052909;29;20077;-92
2022/11/04 11:06:14;;;;;;;4.20;3.38;;;;;;;-145.48;100.00;64539.38;6054203;29;20526;-92
2022/11/04 11:09:28;;;;;;;4.35;2.90;;;;;;;-145.48;100.00;64539.38;6052478;29;20053;-91
2022/11/04 11:12:39;;;;;;;5.20;3.25;;;;;;;-145.48;100.00;64539.38;6057401;29;20060;-92
2022/11/04 11:16:08;;;;;;;5.80;3.55;;;;;;;-145.48;100.00;64539.38;6041826;29;20144;-93
2022/11/04 11:19:10;;;;;;;6.82;3.25;;;;;;;-145.48;100.00;64539.38;6052552;29;20044;-92
2022/11/04 11:22:43;;;;;;;5.47;3.20;;;;;;;-145.48;100.00;64539.38;6056168;29;20048;-92
2022/11/04 11:25:49;;;;;;;4.50;2.85;;;;;;;-145.48;100.00;64539.38;6044815;29;20124;-90
2022/11/04 11:29:01;;;;;;;6.63;3.30;;;;;;;-145.48;100.00;64539.38;6050886;29;20100;-92
2022/11/04 11:32:04;;;;;;;7.32;3.60;;;;;;;-145.48;100.00;64539.38;6057670;29;20053;-93
2022/11/04 11:35:41;;;;;;;3.90;2.80;;;;;;;-145.48;100.00;64539.38;6053425;29;20499;-92
2022/11/04 11:38:55;;;;;;;3.83;3.05;;;;;;;-145.48;100.00;64539.38;6046114;29;20534;-92
2022/11/04 11:42:11;;;;;;;8.95;2.90;;;;;;;-145.48;100.00;64539.38;6052418;29;20044;-92
2022/11/04 11:45:15;;;;;;;3.92;2.75;;;;;;;-145.48;100.00;64539.38;6054753;29;20045;-91
2022/11/04 11:48:53;;;;;;;5.60;2.60;;;;;;;-145.48;100.00;64539.38;6046936;29;20045;-92
2022/11/04 11:52:22;;;;;;;3.83;2.50;;;;;;;-145.48;100.00;64539.38;6020241;29;20061;-92
2022/11/04 11:55:27;;;;;;;6.95;3.60;;;;;;;-145.48;100.00;64539.38;6018392;29;20164;-91
2022/11/04 11:58:48;;;;;;;3.60;2.90;;;;;;;-145.48;100.00;64539.38;6020202;29;20068;-91
2022/11/04 12:02:27;;;;;;;4.43;2.85;;;;;;;-145.48;100.00;64539.38;6014545;29;20053;-92
2022/11/04 12:05:40;;;;;;;3.65;2.80;;;;;;;-145.48;100.00;64539.38;6040179;29;20472;-92
2022/11/04 12:09:39;;;;;;;2.95;2.65;;;;;;;-145.48;100.00;64539.38;6017907;29;20061;-92
2022/11/04 12:12:53;;;;;;;3.72;2.70;;;;;;;-145.48;100.00;64539.38;6019764;29;20060;-92
2022/11/04 12:16:25;;;;;;;3.75;2.47;;;;;;;-145.48;100.00;64539.38;6023572;29;20080;-92
2022/11/04 12:20:04;;;;;;;3.67;2.60;;;;;;;-145.48;100.00;64539.38;6025933;29;20563;-92
2022/11/04 12:23:16;;;;;;;2.65;2.30;;;;;;;-145.48;100.00;64539.38;6009660;29;20057;-92
2022/11/04 12:27:06;;;;;;;4.53;2.38;;;;;;;-145.48;100.00;64539.38;6032698;29;20053;-92
2022/11/04 12:30:20;;;;;;;2.90;2.30;;;;;;;-145.48;100.00;64539.38;6045060;29;20045;-92
2022/11/04 12:33:40;;;;;;;3.42;2.30;;;;;;;-145.48;100.00;64539.38;6058052;29;20083;-92
2022/11/04 12:37:07;;;;;;;4.05;2.58;;;;;;;-145.48;100.00;64539.38;6040152;29;20060;-92
2022/11/04 12:40:35;;;;;;;4.05;2.40;;;;;;;-145.48;100.00;64539.38;6062688;29;20128;-92
2022/11/04 12:44:09;;;;;;;3.88;2.40;;;;;;;-145.48;100.00;64539.38;6059732;29;20048;-92
2022/11/04 12:47:38;;;;;;;5.45;2.70;;;;;;;-145.48;100.00;64539.38;6060585;29;20049;-92
2022/11/04 12:51:18;;;;;;;5.78;3.00;;;;;;;-145.48;100.00;64539.38;6057248;29;20045;-92
2022/11/04 12:54:33;;;;;;;3.60;2.55;;;;;;;-145.48;100.00;64539.38;6019086;29;20128;-92
2022/11/04 12:58:03;;;;;;;3.78;2.80;;;;;;;-145.48;100.00;64539.38;6026299;29;20624;-92
2022/11/04 13:01:23;;;;;;;4.60;2.70;;;;;;;-145.48;100.00;64539.38;6022864;29;20061;-92
2022/11/04 13:04:35;;;;;;;5.38;2.30;;;;;;;-145.48;100.00;64539.38;6030213;29;20136;-92
2022/11/04 13:07:45;;;;;;;4.20;2.35;;;;;;;-145.48;100.00;64539.38;6039348;29;20132;-92
2022/11/04 13:10:54;;;;;;;3.83;2.35;;;;;;;-145.48;100.00;64539.38;6012667;29;20485;-91
2022/11/04 13:14:17;;;;;;;3.13;2.72;;;;;;;-145.48;100.00;64539.38;6018673;29;20061;-91
2022/11/04 13:17:43;;;;;;;3.75;2.55;;;;;;;-145.48;100.00;64539.38;6022281;29;20470;-91
2022/11/04 13:21:07;;;;;;;6.47;2.47;;;;;;;-145.48;100.00;64539.38;6007353;29;20420;-92
2022/11/04 13:24:29;;;;;;;4.95;3.00;;;;;;;-145.48;100.00;64539.38;6028455;29;20079;-92
2022/11/04 13:27:43;;;;;;;4.88;2.60;;;;;;;-145.48;100.00;64539.38;6064588;29;20131;-90
2022/11/04 13:31:30;;;;;;;3.17;2.65;;;;;;;-145.48;100.00;64539.38;6049937;29;20499;-91
2022/11/04 13:34:38;;;;;;;3.60;2.75;;;;;;;-145.48;100.00;64539.38;6053167;29;20096;-92
2022/11/04 13:38:02;;;;;;;5.05;2.63;;;;;;;-145.48;100.00;64539.38;6044262;29;20045;-92
2022/11/04 13:41:31;;;;;;;3.72;2.45;;;;;;;-145.48;100.00;64539.38;6055012;29;20599;-93
2022/11/04 13:44:45;;;;;;;4.10;2.40;;;;;;;-145.48;100.00;64539.38;6043339;29;20053;-92
2022/11/04 13:47:54;;;;;;;3.45;2.80;;;;;;;-145.48;100.00;64539.38;6046744;29;20056;-92
2022/11/04 13:50:59;;;;;;;5.10;2.88;;;;;;;-145.48;100.00;64539.38;6048254;29;20494;-92
2022/11/04 13:54:02;;;;;;;8.63;3.67;;;;;;;-145.48;100.00;64539.38;6052778;29;20532;-92
2022/11/04 13:57:12;;;;;;;5.18;3.33;;;;;;;-145.48;100.00;64539.38;6053972;29;20104;-91
2022/11/04 14:00:14;;;;;;;4.68;3.40;;;;;;;-145.48;100.00;64539.38;6047157;29;20118;-91
2022/11/04 14:04:04;;;;;;;5.00;3.17;;;;;;;-145.48;100.00;64539.38;6047419;29;20056;-92
2022/11/04 14:07:10;;;;;;;4.40;3.97;;;;;;;-145.48;100.00;64539.38;6017552;29;20317;-92
2022/11/04 14:10:38;;;;;;;5.45;4.03;;;;;;;-145.48;100.00;64539.38;6020751;29;20049;-91
2022/11/04 14:13:43;;;;;;;11.30;4.38;;;;;;;-145.48;100.00;64539.38;6017112;29;20476;-92
2022/11/04 14:16:45;;;;;;;5.25;3.90;;;;;;;-145.48;100.00;64539.38;6035547;29;20511;-92
2022/11/04 14:20:04;;;;;;;10.68;4.30;;;;;;;-145.48;100.00;64539.38;6028525;29;20124;-92
2022/11/04 14:23:22;;;;;;;5.85;3.92;;;;;;;-145.48;100.00;64539.38;6019933;29;20206;-92
2022/11/04 14:26:40;;;;;;;4.82;3.63;;;;;;;-145.48;100.00;64539.38;6028716;29;20057;-92
2022/11/04 14:29:49;;;;;;;4.63;3.60;;;;;;;-145.48;100.00;64539.38;6031205;29;20053;-91
2022/11/04 14:32:56;;;;;;;3.65;3.33;;;;;;;-145.48;100.00;64539.38;6038982;29;20052;-92
2022/11/04 14:36:20;;;;;;;4.40;3.60;;;;;;;-145.48;100.00;64539.38;6017164;29;20064;-91
2022/11/04 14:39:37;;;;;;;3.88;3.33;;;;;;;-145.48;100.00;64539.38;6034349;29;20460;-92
2022/11/04 14:42:48;;;;;;;7.32;3.47;;;;;;;-145.48;100.00;64539.38;6044601;29;20068;-91
2022/11/04 14:45:50;;;;;;;6.47;3.88;;;;;;;-145.48;100.00;64539.38;6049819;29;20052;-91
2022/11/04 14:48:55;;;;;;;4.38;3.35;;;;;;;-145.48;100.00;64539.38;6066015;29;20040;-92
2022/11/04 14:51:57;;;;;;;5.30;3.83;;;;;;;-145.48;100.00;64539.38;6062985;29;20045;-92
2022/11/04 14:55:28;;;;;;;6.10;3.65;;;;;;;-145.48;100.00;64539.38;6052146;29;20068;-91